sensor_id;sensor_type;location;lat;lon;timestamp;temperature;humidity
17632;DHT22;8934;51.194;17.150;2023-04-24T00:02:14;11.30;99.90
17632;DHT22;8934;51.194;17.150;2023-04-24T00:05:02;11.30;99.90
17632;DHT22;8934;51.194;17.150;2023-04-24T00:07:50;11.40;99.90
17632;DHT22;8934;51.194;17.150;2023-04-24T00:10:41;11.40;99.90
17632;DHT22;8934;51.194;17.150;2023-04-24T00:13:29;11.40;99.90
17632;DHT22;8934;51.194;17.150;2023-04-24T00:16:17;11.40;99.90
17632;DHT22;8934;51.194;17.150;2023-04-24T00:19:04;11.40;99.90
17632;DHT22;8934;51.194;17.150;2023-04-24T00:21:53;11.50;99.90
17632;DHT22;8934;51.194;17.150;2023-04-24T00:24:40;11.50;99.90
17632;DHT22;8934;51.194;17.150;2023-04-24T00:27:29;11.40;99.90
17632;DHT22;8934;51.194;17.150;2023-04-24T00:30:18;11.50;99.90
17632;DHT22;8934;51.194;17.150;2023-04-24T00:33:05;11.50;99.90
17632;DHT22;8934;51.194;17.150;2023-04-24T00:35:53;11.50;99.90
17632;DHT22;8934;51.194;17.150;2023-04-24T00:38:40;11.50;99.90
17632;DHT22;8934;51.194;17.150;2023-04-24T00:41:28;11.50;99.90
17632;DHT22;8934;51.194;17.150;2023-04-24T00:44:18;11.60;99.90
17632;DHT22;8934;51.194;17.150;2023-04-24T00:47:05;11.60;99.90
17632;DHT22;8934;51.194;17.150;2023-04-24T00:49:53;11.60;99.90
17632;DHT22;8934;51.194;17.150;2023-04-24T00:52:42;11.60;99.90
17632;DHT22;8934;51.194;17.150;2023-04-24T00:55:29;11.60;99.90
17632;DHT22;8934;51.194;17.150;2023-04-24T00:58:17;11.60;99.90
17632;DHT22;8934;51.194;17.150;2023-04-24T01:01:07;11.60;99.90
17632;DHT22;8934;51.194;17.150;2023-04-24T01:03:55;11.70;99.90
17632;DHT22;8934;51.194;17.150;2023-04-24T01:06:44;11.70;99.90
17632;DHT22;8934;51.194;17.150;2023-04-24T01:09:33;11.80;99.90
17632;DHT22;8934;51.194;17.150;2023-04-24T01:12:20;11.80;99.90
17632;DHT22;8934;51.194;17.150;2023-04-24T01:15:09;11.70;99.90
17632;DHT22;8934;51.194;17.150;2023-04-24T01:17:58;11.70;99.90
17632;DHT22;8934;51.194;17.150;2023-04-24T01:20:46;11.60;99.90
17632;DHT22;8934;51.194;17.150;2023-04-24T01:23:37;11.60;99.90
17632;DHT22;8934;51.194;17.150;2023-04-24T01:26:25;11.50;99.90
17632;DHT22;8934;51.194;17.150;2023-04-24T01:29:13;11.50;99.90
17632;DHT22;8934;51.194;17.150;2023-04-24T01:32:03;11.50;99.90
17632;DHT22;8934;51.194;17.150;2023-04-24T01:34:50;11.50;99.90
17632;DHT22;8934;51.194;17.150;2023-04-24T01:37:38;11.50;99.90
17632;DHT22;8934;51.194;17.150;2023-04-24T01:40:27;11.40;99.90
17632;DHT22;8934;51.194;17.150;2023-04-24T01:43:16;11.40;99.90
17632;DHT22;8934;51.194;17.150;2023-04-24T01:46:04;11.40;99.90
17632;DHT22;8934;51.194;17.150;2023-04-24T01:48:54;11.40;99.90
17632;DHT22;8934;51.194;17.150;2023-04-24T01:51:43;11.40;99.90
17632;DHT22;8934;51.194;17.150;2023-04-24T01:54:31;11.40;99.90
17632;DHT22;8934;51.194;17.150;2023-04-24T01:57:20;11.40;99.90
17632;DHT22;8934;51.194;17.150;2023-04-24T02:00:08;11.40;99.90
17632;DHT22;8934;51.194;17.150;2023-04-24T02:02:58;11.40;99.90
17632;DHT22;8934;51.194;17.150;2023-04-24T02:05:46;11.40;99.90
17632;DHT22;8934;51.194;17.150;2023-04-24T02:08:33;11.50;99.90
17632;DHT22;8934;51.194;17.150;2023-04-24T02:11:21;11.50;99.90
17632;DHT22;8934;51.194;17.150;2023-04-24T02:14:11;11.50;99.90
17632;DHT22;8934;51.194;17.150;2023-04-24T02:16:59;11.50;99.90
17632;DHT22;8934;51.194;17.150;2023-04-24T02:19:47;11.50;99.90
17632;DHT22;8934;51.194;17.150;2023-04-24T02:22:35;11.50;99.90
17632;DHT22;8934;51.194;17.150;2023-04-24T02:25:23;11.50;99.90
17632;DHT22;8934;51.194;17.150;2023-04-24T02:28:14;11.50;99.90
17632;DHT22;8934;51.194;17.150;2023-04-24T02:31:03;11.40;99.90
17632;DHT22;8934;51.194;17.150;2023-04-24T02:33:51;11.40;99.90
17632;DHT22;8934;51.194;17.150;2023-04-24T02:36:39;11.40;99.90
17632;DHT22;8934;51.194;17.150;2023-04-24T02:39:27;11.40;99.90
17632;DHT22;8934;51.194;17.150;2023-04-24T02:42:14;11.40;99.90
17632;DHT22;8934;51.194;17.150;2023-04-24T02:45:02;11.40;99.90
17632;DHT22;8934;51.194;17.150;2023-04-24T02:47:53;11.40;99.90
17632;DHT22;8934;51.194;17.150;2023-04-24T02:50:41;11.30;99.90
17632;DHT22;8934;51.194;17.150;2023-04-24T02:53:29;11.30;99.90
17632;DHT22;8934;51.194;17.150;2023-04-24T02:56:17;11.30;99.90
17632;DHT22;8934;51.194;17.150;2023-04-24T02:59:05;11.20;99.90
17632;DHT22;8934;51.194;17.150;2023-04-24T03:01:53;11.30;99.90
17632;DHT22;8934;51.194;17.150;2023-04-24T03:04:42;11.30;99.90
17632;DHT22;8934;51.194;17.150;2023-04-24T03:07:31;11.30;99.90
17632;DHT22;8934;51.194;17.150;2023-04-24T03:10:18;11.30;99.90
17632;DHT22;8934;51.194;17.150;2023-04-24T03:13:07;11.30;99.90
17632;DHT22;8934;51.194;17.150;2023-04-24T03:15:54;11.30;99.90
17632;DHT22;8934;51.194;17.150;2023-04-24T03:18:42;11.20;99.90
17632;DHT22;8934;51.194;17.150;2023-04-24T03:21:31;11.20;99.90
17632;DHT22;8934;51.194;17.150;2023-04-24T03:24:20;11.20;99.90
17632;DHT22;8934;51.194;17.150;2023-04-24T03:27:11;11.30;99.90
17632;DHT22;8934;51.194;17.150;2023-04-24T03:30:25;11.30;99.90
17632;DHT22;8934;51.194;17.150;2023-04-24T03:33:17;11.30;99.90
17632;DHT22;8934;51.194;17.150;2023-04-24T03:36:18;11.30;99.90
17632;DHT22;8934;51.194;17.150;2023-04-24T03:39:07;11.30;99.90
17632;DHT22;8934;51.194;17.150;2023-04-24T03:41:58;11.30;99.90
17632;DHT22;8934;51.194;17.150;2023-04-24T03:44:57;11.40;99.90
17632;DHT22;8934;51.194;17.150;2023-04-24T03:47:49;11.30;99.90
17632;DHT22;8934;51.194;17.150;2023-04-24T03:50:37;11.40;99.90
17632;DHT22;8934;51.194;17.150;2023-04-24T03:53:27;11.40;99.90
17632;DHT22;8934;51.194;17.150;2023-04-24T03:56:17;11.40;99.90
17632;DHT22;8934;51.194;17.150;2023-04-24T03:59:05;11.40;99.90
17632;DHT22;8934;51.194;17.150;2023-04-24T04:01:54;11.30;99.90
17632;DHT22;8934;51.194;17.150;2023-04-24T04:04:42;11.30;99.90
17632;DHT22;8934;51.194;17.150;2023-04-24T04:07:30;11.30;99.90
17632;DHT22;8934;51.194;17.150;2023-04-24T04:10:17;11.30;99.90
17632;DHT22;8934;51.194;17.150;2023-04-24T04:13:07;11.30;99.90
17632;DHT22;8934;51.194;17.150;2023-04-24T04:15:55;11.30;99.90
17632;DHT22;8934;51.194;17.150;2023-04-24T04:18:43;11.30;99.90
17632;DHT22;8934;51.194;17.150;2023-04-24T04:21:31;11.30;99.90
17632;DHT22;8934;51.194;17.150;2023-04-24T04:24:51;11.20;99.90
17632;DHT22;8934;51.194;17.150;2023-04-24T04:27:41;11.20;99.90
17632;DHT22;8934;51.194;17.150;2023-04-24T04:30:32;11.20;99.90
17632;DHT22;8934;51.194;17.150;2023-04-24T04:33:22;11.10;99.90
17632;DHT22;8934;51.194;17.150;2023-04-24T04:36:10;11.10;99.90
17632;DHT22;8934;51.194;17.150;2023-04-24T04:39:03;11.10;99.90
17632;DHT22;8934;51.194;17.150;2023-04-24T04:42:08;11.20;99.90
17632;DHT22;8934;51.194;17.150;2023-04-24T04:44:59;11.20;99.90
17632;DHT22;8934;51.194;17.150;2023-04-24T04:47:59;11.30;99.90
17632;DHT22;8934;51.194;17.150;2023-04-24T04:50:50;11.40;99.90
17632;DHT22;8934;51.194;17.150;2023-04-24T04:53:43;11.50;99.90
17632;DHT22;8934;51.194;17.150;2023-04-24T04:56:31;11.60;99.90
17632;DHT22;8934;51.194;17.150;2023-04-24T04:59:20;11.80;99.90
17632;DHT22;8934;51.194;17.150;2023-04-24T05:02:12;11.90;99.90
17632;DHT22;8934;51.194;17.150;2023-04-24T05:05:02;12.10;99.90
17632;DHT22;8934;51.194;17.150;2023-04-24T05:07:50;12.20;99.90
17632;DHT22;8934;51.194;17.150;2023-04-24T05:10:38;12.40;99.90
17632;DHT22;8934;51.194;17.150;2023-04-24T05:13:26;12.50;99.90
17632;DHT22;8934;51.194;17.150;2023-04-24T05:16:33;12.70;99.90
17632;DHT22;8934;51.194;17.150;2023-04-24T05:19:24;12.90;99.90
17632;DHT22;8934;51.194;17.150;2023-04-24T05:22:14;13.00;99.90
17632;DHT22;8934;51.194;17.150;2023-04-24T05:25:08;13.20;99.90
17632;DHT22;8934;51.194;17.150;2023-04-24T05:28:18;13.30;99.90
17632;DHT22;8934;51.194;17.150;2023-04-24T05:31:15;13.50;99.90
17632;DHT22;8934;51.194;17.150;2023-04-24T05:34:03;13.60;99.90
17632;DHT22;8934;51.194;17.150;2023-04-24T05:36:52;13.70;99.90
17632;DHT22;8934;51.194;17.150;2023-04-24T05:39:41;13.80;99.90
17632;DHT22;8934;51.194;17.150;2023-04-24T05:42:29;13.90;99.90
17632;DHT22;8934;51.194;17.150;2023-04-24T05:45:17;14.00;99.90
17632;DHT22;8934;51.194;17.150;2023-04-24T05:48:05;14.10;99.90
17632;DHT22;8934;51.194;17.150;2023-04-24T05:50:53;14.20;99.90
17632;DHT22;8934;51.194;17.150;2023-04-24T05:53:42;14.30;99.90
17632;DHT22;8934;51.194;17.150;2023-04-24T05:56:31;14.40;99.90
17632;DHT22;8934;51.194;17.150;2023-04-24T05:59:22;14.50;99.90
17632;DHT22;8934;51.194;17.150;2023-04-24T06:02:10;14.50;99.90
17632;DHT22;8934;51.194;17.150;2023-04-24T06:04:57;14.50;99.90
17632;DHT22;8934;51.194;17.150;2023-04-24T06:07:46;14.60;99.90
17632;DHT22;8934;51.194;17.150;2023-04-24T06:10:34;14.70;99.90
17632;DHT22;8934;51.194;17.150;2023-04-24T06:13:25;14.80;99.90
17632;DHT22;8934;51.194;17.150;2023-04-24T06:16:32;14.90;99.90
17632;DHT22;8934;51.194;17.150;2023-04-24T06:19:28;15.00;99.90
17632;DHT22;8934;51.194;17.150;2023-04-24T06:22:15;15.20;99.90
17632;DHT22;8934;51.194;17.150;2023-04-24T06:25:04;15.40;99.90
17632;DHT22;8934;51.194;17.150;2023-04-24T06:27:52;15.70;99.90
17632;DHT22;8934;51.194;17.150;2023-04-24T06:30:42;16.00;99.90
17632;DHT22;8934;51.194;17.150;2023-04-24T06:33:31;16.30;99.90
17632;DHT22;8934;51.194;17.150;2023-04-24T06:36:18;16.50;99.90
17632;DHT22;8934;51.194;17.150;2023-04-24T06:39:05;16.60;99.90
17632;DHT22;8934;51.194;17.150;2023-04-24T06:41:53;16.60;99.90
17632;DHT22;8934;51.194;17.150;2023-04-24T06:44:42;16.50;99.90
17632;DHT22;8934;51.194;17.150;2023-04-24T06:47:32;16.40;99.90
17632;DHT22;8934;51.194;17.150;2023-04-24T06:50:20;16.30;99.90
17632;DHT22;8934;51.194;17.150;2023-04-24T06:53:07;16.10;99.90
17632;DHT22;8934;51.194;17.150;2023-04-24T06:55:57;16.00;99.90
17632;DHT22;8934;51.194;17.150;2023-04-24T06:58:45;15.90;99.90
17632;DHT22;8934;51.194;17.150;2023-04-24T07:01:32;15.80;99.90
17632;DHT22;8934;51.194;17.150;2023-04-24T07:04:21;15.80;99.90
17632;DHT22;8934;51.194;17.150;2023-04-24T07:07:12;15.80;99.90
17632;DHT22;8934;51.194;17.150;2023-04-24T07:10:00;15.80;99.90
17632;DHT22;8934;51.194;17.150;2023-04-24T07:12:50;16.00;99.90
17632;DHT22;8934;51.194;17.150;2023-04-24T07:15:38;16.10;99.90
17632;DHT22;8934;51.194;17.150;2023-04-24T07:18:27;16.20;99.90
17632;DHT22;8934;51.194;17.150;2023-04-24T07:21:15;16.20;99.90
17632;DHT22;8934;51.194;17.150;2023-04-24T07:24:05;16.30;99.90
17632;DHT22;8934;51.194;17.150;2023-04-24T07:26:55;16.50;99.90
17632;DHT22;8934;51.194;17.150;2023-04-24T07:29:43;16.60;99.90
17632;DHT22;8934;51.194;17.150;2023-04-24T07:32:31;16.70;99.90
17632;DHT22;8934;51.194;17.150;2023-04-24T07:35:19;16.80;99.90
17632;DHT22;8934;51.194;17.150;2023-04-24T07:38:08;16.90;99.90
17632;DHT22;8934;51.194;17.150;2023-04-24T07:40:56;17.10;99.90
17632;DHT22;8934;51.194;17.150;2023-04-24T07:43:44;17.20;99.90
17632;DHT22;8934;51.194;17.150;2023-04-24T07:46:32;17.30;99.90
17632;DHT22;8934;51.194;17.150;2023-04-24T07:49:19;17.40;99.90
17632;DHT22;8934;51.194;17.150;2023-04-24T07:52:08;17.60;99.90
17632;DHT22;8934;51.194;17.150;2023-04-24T07:54:57;17.70;99.90
17632;DHT22;8934;51.194;17.150;2023-04-24T07:57:46;17.70;99.90
17632;DHT22;8934;51.194;17.150;2023-04-24T08:00:34;17.80;99.90
17632;DHT22;8934;51.194;17.150;2023-04-24T08:03:21;17.80;99.90
17632;DHT22;8934;51.194;17.150;2023-04-24T08:06:10;17.80;99.90
17632;DHT22;8934;51.194;17.150;2023-04-24T08:08:58;17.80;99.90
17632;DHT22;8934;51.194;17.150;2023-04-24T08:11:48;17.70;99.90
17632;DHT22;8934;51.194;17.150;2023-04-24T08:14:36;17.60;99.90
17632;DHT22;8934;51.194;17.150;2023-04-24T08:17:24;17.60;99.90
17632;DHT22;8934;51.194;17.150;2023-04-24T08:20:12;17.50;99.90
17632;DHT22;8934;51.194;17.150;2023-04-24T08:23:00;17.60;99.90
17632;DHT22;8934;51.194;17.150;2023-04-24T08:25:48;17.60;99.90
17632;DHT22;8934;51.194;17.150;2023-04-24T08:28:38;17.50;99.90
17632;DHT22;8934;51.194;17.150;2023-04-24T08:31:25;17.40;99.90
17632;DHT22;8934;51.194;17.150;2023-04-24T08:34:13;17.30;99.90
17632;DHT22;8934;51.194;17.150;2023-04-24T08:37:01;17.10;99.90
17632;DHT22;8934;51.194;17.150;2023-04-24T08:39:50;16.90;99.90
17632;DHT22;8934;51.194;17.150;2023-04-24T08:42:37;16.70;99.90
17632;DHT22;8934;51.194;17.150;2023-04-24T08:45:27;16.50;99.90
17632;DHT22;8934;51.194;17.150;2023-04-24T08:48:15;16.30;99.90
17632;DHT22;8934;51.194;17.150;2023-04-24T08:51:15;16.30;99.90
17632;DHT22;8934;51.194;17.150;2023-04-24T08:54:04;16.30;99.90
17632;DHT22;8934;51.194;17.150;2023-04-24T08:56:55;16.60;99.90
17632;DHT22;8934;51.194;17.150;2023-04-24T08:59:47;17.00;99.90
17632;DHT22;8934;51.194;17.150;2023-04-24T09:02:39;17.70;99.90
17632;DHT22;8934;51.194;17.150;2023-04-24T09:05:29;18.20;99.90
17632;DHT22;8934;51.194;17.150;2023-04-24T09:08:18;18.40;99.90
17632;DHT22;8934;51.194;17.150;2023-04-24T09:11:08;18.90;99.90
17632;DHT22;8934;51.194;17.150;2023-04-24T09:13:56;19.20;99.90
17632;DHT22;8934;51.194;17.150;2023-04-24T09:16:44;19.20;99.90
17632;DHT22;8934;51.194;17.150;2023-04-24T09:19:33;19.40;99.90
17632;DHT22;8934;51.194;17.150;2023-04-24T09:22:21;19.40;99.90
17632;DHT22;8934;51.194;17.150;2023-04-24T09:25:09;19.50;99.90
17632;DHT22;8934;51.194;17.150;2023-04-24T09:28:01;19.60;99.90
17632;DHT22;8934;51.194;17.150;2023-04-24T09:31:05;20.00;99.90
17632;DHT22;8934;51.194;17.150;2023-04-24T09:34:00;20.30;99.90
17632;DHT22;8934;51.194;17.150;2023-04-24T09:36:54;20.50;99.90
17632;DHT22;8934;51.194;17.150;2023-04-24T09:39:42;20.90;99.90
17632;DHT22;8934;51.194;17.150;2023-04-24T09:42:30;20.80;99.90
17632;DHT22;8934;51.194;17.150;2023-04-24T09:45:18;20.80;99.90
17632;DHT22;8934;51.194;17.150;2023-04-24T09:48:09;20.70;99.90
17632;DHT22;8934;51.194;17.150;2023-04-24T09:50:57;20.50;99.90
17632;DHT22;8934;51.194;17.150;2023-04-24T09:53:48;20.60;99.90
17632;DHT22;8934;51.194;17.150;2023-04-24T09:56:43;20.80;99.90
17632;DHT22;8934;51.194;17.150;2023-04-24T09:59:32;21.10;99.90
17632;DHT22;8934;51.194;17.150;2023-04-24T10:02:26;20.90;99.90
17632;DHT22;8934;51.194;17.150;2023-04-24T10:05:15;20.70;99.90
17632;DHT22;8934;51.194;17.150;2023-04-24T10:08:04;20.50;99.90
17632;DHT22;8934;51.194;17.150;2023-04-24T10:10:54;20.60;99.90
17632;DHT22;8934;51.194;17.150;2023-04-24T10:13:42;20.60;99.90
17632;DHT22;8934;51.194;17.150;2023-04-24T10:16:31;20.60;99.90
17632;DHT22;8934;51.194;17.150;2023-04-24T10:19:19;20.50;99.90
17632;DHT22;8934;51.194;17.150;2023-04-24T10:22:07;20.20;99.90
17632;DHT22;8934;51.194;17.150;2023-04-24T10:24:55;20.00;99.90
17632;DHT22;8934;51.194;17.150;2023-04-24T10:27:46;19.80;99.90
17632;DHT22;8934;51.194;17.150;2023-04-24T10:30:35;19.70;99.90
17632;DHT22;8934;51.194;17.150;2023-04-24T10:33:23;19.60;99.90
17632;DHT22;8934;51.194;17.150;2023-04-24T10:36:12;19.50;99.90
17632;DHT22;8934;51.194;17.150;2023-04-24T10:39:03;19.40;99.90
17632;DHT22;8934;51.194;17.150;2023-04-24T10:41:53;19.30;99.90
17632;DHT22;8934;51.194;17.150;2023-04-24T10:44:47;19.20;99.90
17632;DHT22;8934;51.194;17.150;2023-04-24T10:47:40;19.20;99.90
17632;DHT22;8934;51.194;17.150;2023-04-24T10:50:30;19.20;99.90
17632;DHT22;8934;51.194;17.150;2023-04-24T10:53:30;19.40;99.90
17632;DHT22;8934;51.194;17.150;2023-04-24T10:56:18;19.50;99.90
17632;DHT22;8934;51.194;17.150;2023-04-24T10:59:07;19.70;99.90
17632;DHT22;8934;51.194;17.150;2023-04-24T11:01:57;19.80;99.90
17632;DHT22;8934;51.194;17.150;2023-04-24T11:04:45;19.70;99.90
17632;DHT22;8934;51.194;17.150;2023-04-24T11:08:12;19.60;99.90
17632;DHT22;8934;51.194;17.150;2023-04-24T11:11:02;19.20;99.90
17632;DHT22;8934;51.194;17.150;2023-04-24T11:14:04;19.00;99.90
17632;DHT22;8934;51.194;17.150;2023-04-24T11:16:54;18.80;99.90
17632;DHT22;8934;51.194;17.150;2023-04-24T11:19:50;18.70;99.90
17632;DHT22;8934;51.194;17.150;2023-04-24T11:22:41;18.40;99.90
17632;DHT22;8934;51.194;17.150;2023-04-24T11:25:30;18.40;99.90
17632;DHT22;8934;51.194;17.150;2023-04-24T11:28:19;18.40;99.90
17632;DHT22;8934;51.194;17.150;2023-04-24T11:31:33;18.40;99.90
17632;DHT22;8934;51.194;17.150;2023-04-24T11:34:21;18.40;99.90
17632;DHT22;8934;51.194;17.150;2023-04-24T11:37:10;18.40;99.90
17632;DHT22;8934;51.194;17.150;2023-04-24T11:39:59;18.60;99.90
17632;DHT22;8934;51.194;17.150;2023-04-24T11:42:49;18.90;99.90
17632;DHT22;8934;51.194;17.150;2023-04-24T11:45:37;19.20;99.90
17632;DHT22;8934;51.194;17.150;2023-04-24T11:48:24;19.40;99.90
17632;DHT22;8934;51.194;17.150;2023-04-24T11:51:12;19.60;99.90
17632;DHT22;8934;51.194;17.150;2023-04-24T11:54:01;19.80;99.90
17632;DHT22;8934;51.194;17.150;2023-04-24T11:56:49;20.00;99.90
17632;DHT22;8934;51.194;17.150;2023-04-24T11:59:37;20.20;99.90
17632;DHT22;8934;51.194;17.150;2023-04-24T12:02:26;20.40;99.90
17632;DHT22;8934;51.194;17.150;2023-04-24T12:05:19;20.60;99.90
17632;DHT22;8934;51.194;17.150;2023-04-24T12:08:08;20.60;99.90
17632;DHT22;8934;51.194;17.150;2023-04-24T12:10:57;20.40;99.90
17632;DHT22;8934;51.194;17.150;2023-04-24T12:13:45;20.10;99.90
17632;DHT22;8934;51.194;17.150;2023-04-24T12:16:33;19.70;99.90
17632;DHT22;8934;51.194;17.150;2023-04-24T12:19:22;19.30;99.90
17632;DHT22;8934;51.194;17.150;2023-04-24T12:22:10;18.90;99.90
17632;DHT22;8934;51.194;17.150;2023-04-24T12:24:58;18.60;99.90
17632;DHT22;8934;51.194;17.150;2023-04-24T12:27:53;18.30;99.90
17632;DHT22;8934;51.194;17.150;2023-04-24T12:30:43;18.10;99.90
17632;DHT22;8934;51.194;17.150;2023-04-24T12:33:33;18.00;99.90
17632;DHT22;8934;51.194;17.150;2023-04-24T12:36:21;18.00;99.90
17632;DHT22;8934;51.194;17.150;2023-04-24T12:39:14;17.80;99.90
17632;DHT22;8934;51.194;17.150;2023-04-24T12:42:02;17.70;99.90
17632;DHT22;8934;51.194;17.150;2023-04-24T12:44:56;17.60;99.90
17632;DHT22;8934;51.194;17.150;2023-04-24T12:47:44;17.50;99.90
17632;DHT22;8934;51.194;17.150;2023-04-24T12:50:32;17.50;99.90
17632;DHT22;8934;51.194;17.150;2023-04-24T12:53:20;17.40;99.90
17632;DHT22;8934;51.194;17.150;2023-04-24T12:56:07;17.30;99.90
17632;DHT22;8934;51.194;17.150;2023-04-24T12:58:55;17.10;99.90
17632;DHT22;8934;51.194;17.150;2023-04-24T13:01:44;17.00;99.90
17632;DHT22;8934;51.194;17.150;2023-04-24T13:04:32;16.80;99.90
17632;DHT22;8934;51.194;17.150;2023-04-24T13:07:19;16.70;99.90
17632;DHT22;8934;51.194;17.150;2023-04-24T13:10:08;16.60;99.90
17632;DHT22;8934;51.194;17.150;2023-04-24T13:12:56;16.50;99.90
17632;DHT22;8934;51.194;17.150;2023-04-24T13:15:43;16.50;99.90
17632;DHT22;8934;51.194;17.150;2023-04-24T13:18:33;16.50;99.90
17632;DHT22;8934;51.194;17.150;2023-04-24T13:21:20;16.40;99.90
17632;DHT22;8934;51.194;17.150;2023-04-24T13:24:08;16.20;99.90
17632;DHT22;8934;51.194;17.150;2023-04-24T13:26:57;16.00;99.90
17632;DHT22;8934;51.194;17.150;2023-04-24T13:29:45;15.70;99.90
17632;DHT22;8934;51.194;17.150;2023-04-24T13:32:33;15.40;99.90
17632;DHT22;8934;51.194;17.150;2023-04-24T13:35:22;15.20;99.90
17632;DHT22;8934;51.194;17.150;2023-04-24T13:38:10;14.90;99.90
17632;DHT22;8934;51.194;17.150;2023-04-24T13:40:58;14.70;99.90
17632;DHT22;8934;51.194;17.150;2023-04-24T13:43:46;14.50;99.90
17632;DHT22;8934;51.194;17.150;2023-04-24T13:46:33;14.40;99.90
17632;DHT22;8934;51.194;17.150;2023-04-24T13:49:21;14.40;99.90
17632;DHT22;8934;51.194;17.150;2023-04-24T13:52:12;14.30;99.90
17632;DHT22;8934;51.194;17.150;2023-04-24T13:55:00;14.30;99.90
17632;DHT22;8934;51.194;17.150;2023-04-24T13:57:49;14.20;99.90
17632;DHT22;8934;51.194;17.150;2023-04-24T14:00:36;14.10;99.90
17632;DHT22;8934;51.194;17.150;2023-04-24T14:03:23;14.10;99.90
17632;DHT22;8934;51.194;17.150;2023-04-24T14:06:12;14.10;99.90
17632;DHT22;8934;51.194;17.150;2023-04-24T14:09:01;14.00;99.90
17632;DHT22;8934;51.194;17.150;2023-04-24T14:11:48;14.00;99.90
17632;DHT22;8934;51.194;17.150;2023-04-24T14:14:36;14.10;99.90
17632;DHT22;8934;51.194;17.150;2023-04-24T14:17:24;14.10;99.90
17632;DHT22;8934;51.194;17.150;2023-04-24T14:20:12;14.20;99.90
17632;DHT22;8934;51.194;17.150;2023-04-24T14:22:59;14.20;99.90
17632;DHT22;8934;51.194;17.150;2023-04-24T14:25:49;14.20;99.90
17632;DHT22;8934;51.194;17.150;2023-04-24T14:28:38;14.20;99.90
17632;DHT22;8934;51.194;17.150;2023-04-24T14:31:26;14.10;99.90
17632;DHT22;8934;51.194;17.150;2023-04-24T14:34:14;14.10;99.90
17632;DHT22;8934;51.194;17.150;2023-04-24T14:37:02;14.10;99.90
17632;DHT22;8934;51.194;17.150;2023-04-24T14:39:52;14.10;99.90
17632;DHT22;8934;51.194;17.150;2023-04-24T14:43:01;14.10;99.90
17632;DHT22;8934;51.194;17.150;2023-04-24T14:45:49;14.10;99.90
17632;DHT22;8934;51.194;17.150;2023-04-24T14:48:37;14.10;99.90
17632;DHT22;8934;51.194;17.150;2023-04-24T14:51:24;14.10;99.90
17632;DHT22;8934;51.194;17.150;2023-04-24T14:54:13;14.10;99.90
17632;DHT22;8934;51.194;17.150;2023-04-24T14:57:01;14.20;99.90
17632;DHT22;8934;51.194;17.150;2023-04-24T14:59:50;14.20;99.90
17632;DHT22;8934;51.194;17.150;2023-04-24T15:02:42;14.20;99.90
17632;DHT22;8934;51.194;17.150;2023-04-24T15:05:31;14.30;99.90
17632;DHT22;8934;51.194;17.150;2023-04-24T15:08:19;14.30;99.90
17632;DHT22;8934;51.194;17.150;2023-04-24T15:11:06;14.30;99.90
17632;DHT22;8934;51.194;17.150;2023-04-24T15:13:56;14.30;99.90
17632;DHT22;8934;51.194;17.150;2023-04-24T15:16:45;14.40;99.90
17632;DHT22;8934;51.194;17.150;2023-04-24T15:19:33;14.40;99.90
17632;DHT22;8934;51.194;17.150;2023-04-24T15:22:21;14.30;99.90
17632;DHT22;8934;51.194;17.150;2023-04-24T15:25:10;14.20;99.90
17632;DHT22;8934;51.194;17.150;2023-04-24T15:27:58;14.10;99.90
17632;DHT22;8934;51.194;17.150;2023-04-24T15:30:46;14.10;99.90
17632;DHT22;8934;51.194;17.150;2023-04-24T15:33:34;14.00;99.90
17632;DHT22;8934;51.194;17.150;2023-04-24T15:36:22;14.00;99.90
17632;DHT22;8934;51.194;17.150;2023-04-24T15:39:09;13.90;99.90
17632;DHT22;8934;51.194;17.150;2023-04-24T15:41:58;13.80;99.90
17632;DHT22;8934;51.194;17.150;2023-04-24T15:44:46;13.70;99.90
17632;DHT22;8934;51.194;17.150;2023-04-24T15:47:34;13.60;99.90
17632;DHT22;8934;51.194;17.150;2023-04-24T15:50:23;13.60;99.90
17632;DHT22;8934;51.194;17.150;2023-04-24T15:53:11;13.40;99.90
17632;DHT22;8934;51.194;17.150;2023-04-24T15:55:59;13.40;99.90
17632;DHT22;8934;51.194;17.150;2023-04-24T15:58:46;13.30;99.90
17632;DHT22;8934;51.194;17.150;2023-04-24T16:01:35;13.20;99.90
17632;DHT22;8934;51.194;17.150;2023-04-24T16:04:22;13.10;99.90
17632;DHT22;8934;51.194;17.150;2023-04-24T16:07:12;13.00;99.90
17632;DHT22;8934;51.194;17.150;2023-04-24T16:10:00;13.00;99.90
17632;DHT22;8934;51.194;17.150;2023-04-24T16:12:48;12.90;99.90
17632;DHT22;8934;51.194;17.150;2023-04-24T16:15:36;12.80;99.90
17632;DHT22;8934;51.194;17.150;2023-04-24T16:18:25;12.80;99.90
17632;DHT22;8934;51.194;17.150;2023-04-24T16:21:13;12.80;99.90
17632;DHT22;8934;51.194;17.150;2023-04-24T16:24:02;12.70;99.90
17632;DHT22;8934;51.194;17.150;2023-04-24T16:26:50;12.70;99.90
17632;DHT22;8934;51.194;17.150;2023-04-24T16:29:38;12.70;99.90
17632;DHT22;8934;51.194;17.150;2023-04-24T16:32:25;12.70;99.90
17632;DHT22;8934;51.194;17.150;2023-04-24T16:35:13;12.70;99.90
17632;DHT22;8934;51.194;17.150;2023-04-24T16:38:01;12.70;99.90
17632;DHT22;8934;51.194;17.150;2023-04-24T16:40:51;12.70;99.90
17632;DHT22;8934;51.194;17.150;2023-04-24T16:43:39;12.60;99.90
17632;DHT22;8934;51.194;17.150;2023-04-24T16:46:27;12.60;99.90
17632;DHT22;8934;51.194;17.150;2023-04-24T16:49:14;12.50;99.90
17632;DHT22;8934;51.194;17.150;2023-04-24T16:52:02;12.50;99.90
17632;DHT22;8934;51.194;17.150;2023-04-24T16:54:50;12.50;99.90
17632;DHT22;8934;51.194;17.150;2023-04-24T16:57:39;12.50;99.90
17632;DHT22;8934;51.194;17.150;2023-04-24T17:00:27;12.50;99.90
17632;DHT22;8934;51.194;17.150;2023-04-24T17:03:15;12.50;99.90
17632;DHT22;8934;51.194;17.150;2023-04-24T17:06:03;12.50;99.90
17632;DHT22;8934;51.194;17.150;2023-04-24T17:08:50;12.40;99.90
17632;DHT22;8934;51.194;17.150;2023-04-24T17:11:38;12.40;99.90
17632;DHT22;8934;51.194;17.150;2023-04-24T17:14:27;12.40;99.90
17632;DHT22;8934;51.194;17.150;2023-04-24T17:17:15;12.40;99.90
17632;DHT22;8934;51.194;17.150;2023-04-24T17:20:06;12.30;99.90
17632;DHT22;8934;51.194;17.150;2023-04-24T17:23:08;12.30;99.90
17632;DHT22;8934;51.194;17.150;2023-04-24T17:25:57;12.30;99.90
17632;DHT22;8934;51.194;17.150;2023-04-24T17:28:44;12.30;99.90
17632;DHT22;8934;51.194;17.150;2023-04-24T17:31:34;12.30;99.90
17632;DHT22;8934;51.194;17.150;2023-04-24T17:34:21;12.20;99.90
17632;DHT22;8934;51.194;17.150;2023-04-24T17:37:09;12.20;99.90
17632;DHT22;8934;51.194;17.150;2023-04-24T17:39:57;12.20;99.90
17632;DHT22;8934;51.194;17.150;2023-04-24T17:42:44;12.10;99.90
17632;DHT22;8934;51.194;17.150;2023-04-24T17:45:32;12.10;99.90
17632;DHT22;8934;51.194;17.150;2023-04-24T17:48:21;12.10;99.90
17632;DHT22;8934;51.194;17.150;2023-04-24T17:51:09;12.10;99.90